sensor_id;sensor_type;location;lat;lon;timestamp;temperature;humidity
12893;DHT22;6514;48.606;9.222;2023-06-14T00:00:04;14.10;99.90
12893;DHT22;6514;48.606;9.222;2023-06-14T00:02:33;14.10;99.90
12893;DHT22;6514;48.606;9.222;2023-06-14T00:04:59;14.00;99.90
12893;DHT22;6514;48.606;9.222;2023-06-14T00:07:34;13.90;99.90
12893;DHT22;6514;48.606;9.222;2023-06-14T00:10:03;13.80;99.90
12893;DHT22;6514;48.606;9.222;2023-06-14T00:12:30;13.80;99.90
12893;DHT22;6514;48.606;9.222;2023-06-14T00:14:57;13.80;99.90
12893;DHT22;6514;48.606;9.222;2023-06-14T00:17:24;13.80;99.90
12893;DHT22;6514;48.606;9.222;2023-06-14T00:19:55;13.70;99.90
12893;DHT22;6514;48.606;9.222;2023-06-14T00:22:23;13.80;99.90
12893;DHT22;6514;48.606;9.222;2023-06-14T00:24:50;13.60;99.90
12893;DHT22;6514;48.606;9.222;2023-06-14T00:27:19;13.40;99.90
12893;DHT22;6514;48.606;9.222;2023-06-14T00:29:46;13.30;99.90
12893;DHT22;6514;48.606;9.222;2023-06-14T00:32:12;13.10;99.90
12893;DHT22;6514;48.606;9.222;2023-06-14T00:34:39;13.10;99.90
12893;DHT22;6514;48.606;9.222;2023-06-14T00:37:06;13.00;99.90
12893;DHT22;6514;48.606;9.222;2023-06-14T00:39:33;13.00;99.90
12893;DHT22;6514;48.606;9.222;2023-06-14T00:42:00;13.00;99.90
12893;DHT22;6514;48.606;9.222;2023-06-14T00:44:28;13.00;99.90
12893;DHT22;6514;48.606;9.222;2023-06-14T00:46:55;13.00;99.90
12893;DHT22;6514;48.606;9.222;2023-06-14T00:49:22;12.90;99.90
12893;DHT22;6514;48.606;9.222;2023-06-14T00:51:50;13.00;99.90
12893;DHT22;6514;48.606;9.222;2023-06-14T00:54:17;13.00;99.90
12893;DHT22;6514;48.606;9.222;2023-06-14T00:56:44;13.00;99.90
12893;DHT22;6514;48.606;9.222;2023-06-14T00:59:11;13.10;99.90
12893;DHT22;6514;48.606;9.222;2023-06-14T01:01:40;13.10;99.90
12893;DHT22;6514;48.606;9.222;2023-06-14T01:04:06;13.20;99.90
12893;DHT22;6514;48.606;9.222;2023-06-14T01:06:41;13.20;99.90
12893;DHT22;6514;48.606;9.222;2023-06-14T01:09:17;13.20;99.90
12893;DHT22;6514;48.606;9.222;2023-06-14T01:11:51;13.00;99.90
12893;DHT22;6514;48.606;9.222;2023-06-14T01:14:21;13.00;99.90
12893;DHT22;6514;48.606;9.222;2023-06-14T01:16:50;13.00;99.90
12893;DHT22;6514;48.606;9.222;2023-06-14T01:19:18;13.10;99.90
12893;DHT22;6514;48.606;9.222;2023-06-14T01:21:48;13.10;99.90
12893;DHT22;6514;48.606;9.222;2023-06-14T01:24:18;13.20;99.90
12893;DHT22;6514;48.606;9.222;2023-06-14T01:26:49;13.20;99.90
12893;DHT22;6514;48.606;9.222;2023-06-14T01:29:22;13.20;99.90
12893;DHT22;6514;48.606;9.222;2023-06-14T01:31:49;13.10;99.90
12893;DHT22;6514;48.606;9.222;2023-06-14T01:34:16;13.10;99.90
12893;DHT22;6514;48.606;9.222;2023-06-14T01:36:44;13.10;99.90
12893;DHT22;6514;48.606;9.222;2023-06-14T01:39:13;13.00;99.90
12893;DHT22;6514;48.606;9.222;2023-06-14T01:41:42;13.00;99.90
12893;DHT22;6514;48.606;9.222;2023-06-14T01:44:10;13.00;99.90
12893;DHT22;6514;48.606;9.222;2023-06-14T01:46:39;13.00;99.90
12893;DHT22;6514;48.606;9.222;2023-06-14T01:49:07;13.00;99.90
12893;DHT22;6514;48.606;9.222;2023-06-14T01:51:34;12.90;99.90
12893;DHT22;6514;48.606;9.222;2023-06-14T01:54:01;13.00;99.90
12893;DHT22;6514;48.606;9.222;2023-06-14T01:56:28;12.90;99.90
12893;DHT22;6514;48.606;9.222;2023-06-14T01:58:56;12.90;99.90
12893;DHT22;6514;48.606;9.222;2023-06-14T02:01:23;12.90;99.90
12893;DHT22;6514;48.606;9.222;2023-06-14T02:03:50;12.90;99.90
12893;DHT22;6514;48.606;9.222;2023-06-14T02:06:17;12.80;99.90
12893;DHT22;6514;48.606;9.222;2023-06-14T02:08:43;12.90;99.90
12893;DHT22;6514;48.606;9.222;2023-06-14T02:11:10;12.80;99.90
12893;DHT22;6514;48.606;9.222;2023-06-14T02:13:37;12.80;99.90
12893;DHT22;6514;48.606;9.222;2023-06-14T02:16:05;12.70;99.90
12893;DHT22;6514;48.606;9.222;2023-06-14T02:18:32;12.70;99.90
12893;DHT22;6514;48.606;9.222;2023-06-14T02:20:59;12.70;99.90
12893;DHT22;6514;48.606;9.222;2023-06-14T02:23:26;12.60;99.90
12893;DHT22;6514;48.606;9.222;2023-06-14T02:25:52;12.60;99.90
12893;DHT22;6514;48.606;9.222;2023-06-14T02:28:19;12.60;99.90
12893;DHT22;6514;48.606;9.222;2023-06-14T02:30:46;12.60;99.90
12893;DHT22;6514;48.606;9.222;2023-06-14T02:33:14;12.60;99.90
12893;DHT22;6514;48.606;9.222;2023-06-14T02:35:41;12.50;99.90
12893;DHT22;6514;48.606;9.222;2023-06-14T02:38:08;12.50;99.90
12893;DHT22;6514;48.606;9.222;2023-06-14T02:40:35;12.50;99.90
12893;DHT22;6514;48.606;9.222;2023-06-14T02:43:02;12.40;99.90
12893;DHT22;6514;48.606;9.222;2023-06-14T02:45:28;12.30;99.90
12893;DHT22;6514;48.606;9.222;2023-06-14T02:47:55;12.20;99.90
12893;DHT22;6514;48.606;9.222;2023-06-14T02:50:23;12.10;99.90
12893;DHT22;6514;48.606;9.222;2023-06-14T02:52:51;12.10;99.90
12893;DHT22;6514;48.606;9.222;2023-06-14T02:55:21;12.10;99.90
12893;DHT22;6514;48.606;9.222;2023-06-14T02:57:48;12.00;99.90
12893;DHT22;6514;48.606;9.222;2023-06-14T03:00:15;12.00;99.90
12893;DHT22;6514;48.606;9.222;2023-06-14T03:02:42;11.90;99.90
12893;DHT22;6514;48.606;9.222;2023-06-14T03:05:10;11.90;99.90
12893;DHT22;6514;48.606;9.222;2023-06-14T03:07:38;11.70;99.90
12893;DHT22;6514;48.606;9.222;2023-06-14T03:10:07;11.60;99.90
12893;DHT22;6514;48.606;9.222;2023-06-14T03:12:34;11.50;99.90
12893;DHT22;6514;48.606;9.222;2023-06-14T03:15:02;11.30;99.90
12893;DHT22;6514;48.606;9.222;2023-06-14T03:17:29;11.10;99.90
12893;DHT22;6514;48.606;9.222;2023-06-14T03:19:59;10.90;99.90
12893;DHT22;6514;48.606;9.222;2023-06-14T03:22:26;10.80;99.90
12893;DHT22;6514;48.606;9.222;2023-06-14T03:24:55;10.70;99.90
12893;DHT22;6514;48.606;9.222;2023-06-14T03:27:22;10.70;99.90
12893;DHT22;6514;48.606;9.222;2023-06-14T03:29:49;10.70;99.90
12893;DHT22;6514;48.606;9.222;2023-06-14T03:32:15;10.60;99.90
12893;DHT22;6514;48.606;9.222;2023-06-14T03:34:42;10.50;99.90
12893;DHT22;6514;48.606;9.222;2023-06-14T03:37:10;10.50;99.90
12893;DHT22;6514;48.606;9.222;2023-06-14T03:39:37;10.40;99.90
12893;DHT22;6514;48.606;9.222;2023-06-14T03:42:13;10.40;99.90
12893;DHT22;6514;48.606;9.222;2023-06-14T03:44:39;10.50;99.90
12893;DHT22;6514;48.606;9.222;2023-06-14T03:47:06;10.70;99.90
12893;DHT22;6514;48.606;9.222;2023-06-14T03:49:34;10.80;99.90
12893;DHT22;6514;48.606;9.222;2023-06-14T03:52:02;10.90;99.90
12893;DHT22;6514;48.606;9.222;2023-06-14T03:54:29;11.00;99.90
12893;DHT22;6514;48.606;9.222;2023-06-14T03:56:58;11.30;99.90
12893;DHT22;6514;48.606;9.222;2023-06-14T03:59:26;11.30;99.90
12893;DHT22;6514;48.606;9.222;2023-06-14T04:01:54;11.30;99.90
12893;DHT22;6514;48.606;9.222;2023-06-14T04:04:21;11.50;99.90
12893;DHT22;6514;48.606;9.222;2023-06-14T04:06:54;11.50;99.90
12893;DHT22;6514;48.606;9.222;2023-06-14T04:09:22;11.60;99.90
12893;DHT22;6514;48.606;9.222;2023-06-14T04:11:50;11.60;99.90
12893;DHT22;6514;48.606;9.222;2023-06-14T04:14:18;11.70;99.90
12893;DHT22;6514;48.606;9.222;2023-06-14T04:16:46;11.70;99.90
12893;DHT22;6514;48.606;9.222;2023-06-14T04:19:13;11.80;99.90
12893;DHT22;6514;48.606;9.222;2023-06-14T04:21:39;11.80;99.90
12893;DHT22;6514;48.606;9.222;2023-06-14T04:24:06;11.90;99.90
12893;DHT22;6514;48.606;9.222;2023-06-14T04:26:38;12.00;99.90
12893;DHT22;6514;48.606;9.222;2023-06-14T04:29:05;11.80;99.90
12893;DHT22;6514;48.606;9.222;2023-06-14T04:31:33;11.70;99.90
12893;DHT22;6514;48.606;9.222;2023-06-14T04:34:04;11.60;99.90
12893;DHT22;6514;48.606;9.222;2023-06-14T04:36:32;11.90;99.90
12893;DHT22;6514;48.606;9.222;2023-06-14T04:39:00;11.80;99.90
12893;DHT22;6514;48.606;9.222;2023-06-14T04:41:28;12.10;99.90
12893;DHT22;6514;48.606;9.222;2023-06-14T04:43:56;12.30;99.90
12893;DHT22;6514;48.606;9.222;2023-06-14T04:46:27;12.40;99.90
12893;DHT22;6514;48.606;9.222;2023-06-14T04:48:54;12.40;99.90
12893;DHT22;6514;48.606;9.222;2023-06-14T04:51:23;12.40;99.90
12893;DHT22;6514;48.606;9.222;2023-06-14T04:53:55;12.40;99.90
12893;DHT22;6514;48.606;9.222;2023-06-14T04:56:23;12.40;99.90
12893;DHT22;6514;48.606;9.222;2023-06-14T04:58:51;12.40;99.90
12893;DHT22;6514;48.606;9.222;2023-06-14T05:01:19;12.40;99.90
12893;DHT22;6514;48.606;9.222;2023-06-14T05:03:46;12.40;99.90
12893;DHT22;6514;48.606;9.222;2023-06-14T05:06:14;12.40;99.90
12893;DHT22;6514;48.606;9.222;2023-06-14T05:08:44;12.50;99.90
12893;DHT22;6514;48.606;9.222;2023-06-14T05:11:11;12.60;99.90
12893;DHT22;6514;48.606;9.222;2023-06-14T05:13:37;12.70;99.90
12893;DHT22;6514;48.606;9.222;2023-06-14T05:16:05;12.80;99.90
12893;DHT22;6514;48.606;9.222;2023-06-14T05:18:32;12.80;99.90
12893;DHT22;6514;48.606;9.222;2023-06-14T05:21:01;12.80;99.90
12893;DHT22;6514;48.606;9.222;2023-06-14T05:23:29;13.00;99.90
12893;DHT22;6514;48.606;9.222;2023-06-14T05:25:57;13.40;99.90
12893;DHT22;6514;48.606;9.222;2023-06-14T05:28:24;13.80;99.90
12893;DHT22;6514;48.606;9.222;2023-06-14T05:30:51;14.20;99.90
12893;DHT22;6514;48.606;9.222;2023-06-14T05:33:18;14.60;99.90
12893;DHT22;6514;48.606;9.222;2023-06-14T05:35:45;14.90;99.90
12893;DHT22;6514;48.606;9.222;2023-06-14T05:38:12;15.30;99.90
12893;DHT22;6514;48.606;9.222;2023-06-14T05:40:39;15.60;99.90
12893;DHT22;6514;48.606;9.222;2023-06-14T05:43:07;15.90;99.90
12893;DHT22;6514;48.606;9.222;2023-06-14T05:45:34;16.30;99.90
12893;DHT22;6514;48.606;9.222;2023-06-14T05:48:01;16.60;99.90
12893;DHT22;6514;48.606;9.222;2023-06-14T05:50:27;16.90;99.90
12893;DHT22;6514;48.606;9.222;2023-06-14T05:52:54;17.20;99.90
12893;DHT22;6514;48.606;9.222;2023-06-14T05:55:21;17.40;99.90
12893;DHT22;6514;48.606;9.222;2023-06-14T05:57:48;17.80;99.90
12893;DHT22;6514;48.606;9.222;2023-06-14T06:00:17;18.20;99.90
12893;DHT22;6514;48.606;9.222;2023-06-14T06:02:45;18.60;99.90
12893;DHT22;6514;48.606;9.222;2023-06-14T06:05:13;18.90;99.90
12893;DHT22;6514;48.606;9.222;2023-06-14T06:07:41;19.30;99.90
12893;DHT22;6514;48.606;9.222;2023-06-14T06:10:10;19.50;99.90
12893;DHT22;6514;48.606;9.222;2023-06-14T06:12:36;19.60;99.90
12893;DHT22;6514;48.606;9.222;2023-06-14T06:15:04;19.90;99.90
12893;DHT22;6514;48.606;9.222;2023-06-14T06:17:33;20.20;99.90
12893;DHT22;6514;48.606;9.222;2023-06-14T06:20:00;20.30;99.90
12893;DHT22;6514;48.606;9.222;2023-06-14T06:22:26;20.60;99.90
12893;DHT22;6514;48.606;9.222;2023-06-14T06:24:53;20.90;99.90
12893;DHT22;6514;48.606;9.222;2023-06-14T06:27:20;21.10;99.90
12893;DHT22;6514;48.606;9.222;2023-06-14T06:29:47;21.30;99.80
12893;DHT22;6514;48.606;9.222;2023-06-14T06:32:14;21.50;98.50
12893;DHT22;6514;48.606;9.222;2023-06-14T06:34:42;21.60;99.50
12893;DHT22;6514;48.606;9.222;2023-06-14T06:37:09;21.80;98.90
12893;DHT22;6514;48.606;9.222;2023-06-14T06:39:36;22.00;97.30
12893;DHT22;6514;48.606;9.222;2023-06-14T06:42:03;22.20;96.70
12893;DHT22;6514;48.606;9.222;2023-06-14T06:44:30;22.00;95.50
12893;DHT22;6514;48.606;9.222;2023-06-14T06:46:57;22.00;96.20
12893;DHT22;6514;48.606;9.222;2023-06-14T06:49:24;22.20;94.20
12893;DHT22;6514;48.606;9.222;2023-06-14T06:52:10;22.10;95.90
12893;DHT22;6514;48.606;9.222;2023-06-14T06:54:37;22.30;96.60
12893;DHT22;6514;48.606;9.222;2023-06-14T06:57:04;22.50;95.00
12893;DHT22;6514;48.606;9.222;2023-06-14T06:59:32;22.60;95.20
12893;DHT22;6514;48.606;9.222;2023-06-14T07:01:59;22.70;95.90
12893;DHT22;6514;48.606;9.222;2023-06-14T07:04:25;23.10;95.60
12893;DHT22;6514;48.606;9.222;2023-06-14T07:06:52;23.40;93.90
12893;DHT22;6514;48.606;9.222;2023-06-14T07:09:20;23.40;94.50
12893;DHT22;6514;48.606;9.222;2023-06-14T07:11:48;23.50;93.60
12893;DHT22;6514;48.606;9.222;2023-06-14T07:14:15;23.40;94.40
12893;DHT22;6514;48.606;9.222;2023-06-14T07:16:41;23.40;93.80
12893;DHT22;6514;48.606;9.222;2023-06-14T07:19:08;23.20;94.60
12893;DHT22;6514;48.606;9.222;2023-06-14T07:21:35;23.20;94.90
12893;DHT22;6514;48.606;9.222;2023-06-14T07:24:04;23.40;94.60
12893;DHT22;6514;48.606;9.222;2023-06-14T07:26:33;23.50;93.90
12893;DHT22;6514;48.606;9.222;2023-06-14T07:29:00;23.60;94.30
12893;DHT22;6514;48.606;9.222;2023-06-14T07:31:27;24.00;95.70
12893;DHT22;6514;48.606;9.222;2023-06-14T07:33:54;24.30;93.90
12893;DHT22;6514;48.606;9.222;2023-06-14T07:36:21;24.60;92.90
12893;DHT22;6514;48.606;9.222;2023-06-14T07:38:48;24.70;93.20
12893;DHT22;6514;48.606;9.222;2023-06-14T07:41:16;24.80;93.30
12893;DHT22;6514;48.606;9.222;2023-06-14T07:43:44;25.10;92.60
12893;DHT22;6514;48.606;9.222;2023-06-14T07:46:11;25.30;92.60
12893;DHT22;6514;48.606;9.222;2023-06-14T07:48:37;25.30;91.60
12893;DHT22;6514;48.606;9.222;2023-06-14T07:51:04;25.20;89.60
12893;DHT22;6514;48.606;9.222;2023-06-14T07:53:31;25.20;90.10
12893;DHT22;6514;48.606;9.222;2023-06-14T07:55:58;25.00;88.20
12893;DHT22;6514;48.606;9.222;2023-06-14T07:58:25;24.70;90.00
12893;DHT22;6514;48.606;9.222;2023-06-14T08:00:53;24.60;89.50
12893;DHT22;6514;48.606;9.222;2023-06-14T08:03:20;24.70;90.30
12893;DHT22;6514;48.606;9.222;2023-06-14T08:05:48;25.00;91.30
12893;DHT22;6514;48.606;9.222;2023-06-14T08:08:15;25.40;90.10
12893;DHT22;6514;48.606;9.222;2023-06-14T08:10:42;25.50;91.40
12893;DHT22;6514;48.606;9.222;2023-06-14T08:13:09;25.70;91.10
12893;DHT22;6514;48.606;9.222;2023-06-14T08:15:35;26.10;90.40
12893;DHT22;6514;48.606;9.222;2023-06-14T08:18:04;26.50;88.90
12893;DHT22;6514;48.606;9.222;2023-06-14T08:20:31;26.70;84.90
12893;DHT22;6514;48.606;9.222;2023-06-14T08:23:00;26.40;87.00
12893;DHT22;6514;48.606;9.222;2023-06-14T08:25:27;26.40;87.40
12893;DHT22;6514;48.606;9.222;2023-06-14T08:27:54;26.40;87.60
12893;DHT22;6514;48.606;9.222;2023-06-14T08:30:21;26.30;89.10
12893;DHT22;6514;48.606;9.222;2023-06-14T08:32:48;26.60;90.60
12893;DHT22;6514;48.606;9.222;2023-06-14T08:35:16;26.90;86.50
12893;DHT22;6514;48.606;9.222;2023-06-14T08:37:44;26.90;86.60
12893;DHT22;6514;48.606;9.222;2023-06-14T08:40:18;26.90;87.60
12893;DHT22;6514;48.606;9.222;2023-06-14T08:42:48;27.10;85.60
12893;DHT22;6514;48.606;9.222;2023-06-14T08:45:16;27.30;85.20
12893;DHT22;6514;48.606;9.222;2023-06-14T08:47:44;27.20;84.80
12893;DHT22;6514;48.606;9.222;2023-06-14T08:50:11;27.10;87.90
12893;DHT22;6514;48.606;9.222;2023-06-14T08:52:45;27.10;89.00
12893;DHT22;6514;48.606;9.222;2023-06-14T08:55:16;27.30;86.30
12893;DHT22;6514;48.606;9.222;2023-06-14T08:57:46;27.50;83.50
12893;DHT22;6514;48.606;9.222;2023-06-14T09:00:15;27.30;87.60
12893;DHT22;6514;48.606;9.222;2023-06-14T09:02:42;27.50;87.30
12893;DHT22;6514;48.606;9.222;2023-06-14T09:05:10;27.90;86.60
12893;DHT22;6514;48.606;9.222;2023-06-14T09:07:39;28.10;87.20
12893;DHT22;6514;48.606;9.222;2023-06-14T09:10:10;28.50;84.20
12893;DHT22;6514;48.606;9.222;2023-06-14T09:12:38;28.90;84.50
12893;DHT22;6514;48.606;9.222;2023-06-14T09:15:06;29.30;85.40
12893;DHT22;6514;48.606;9.222;2023-06-14T09:17:34;29.50;86.20
12893;DHT22;6514;48.606;9.222;2023-06-14T09:20:01;29.80;80.80
12893;DHT22;6514;48.606;9.222;2023-06-14T09:22:32;29.80;82.40
12893;DHT22;6514;48.606;9.222;2023-06-14T09:24:59;29.90;78.80
12893;DHT22;6514;48.606;9.222;2023-06-14T09:27:28;29.80;78.70
12893;DHT22;6514;48.606;9.222;2023-06-14T09:29:55;29.30;79.40
12893;DHT22;6514;48.606;9.222;2023-06-14T09:32:22;29.00;79.60
12893;DHT22;6514;48.606;9.222;2023-06-14T09:34:49;29.20;78.20
12893;DHT22;6514;48.606;9.222;2023-06-14T09:37:27;29.30;82.40
12893;DHT22;6514;48.606;9.222;2023-06-14T09:39:54;29.40;77.50
12893;DHT22;6514;48.606;9.222;2023-06-14T09:42:21;29.00;81.90
12893;DHT22;6514;48.606;9.222;2023-06-14T09:44:55;29.00;77.50
12893;DHT22;6514;48.606;9.222;2023-06-14T09:47:23;28.90;79.00
12893;DHT22;6514;48.606;9.222;2023-06-14T09:49:51;28.70;80.40
12893;DHT22;6514;48.606;9.222;2023-06-14T09:52:21;28.90;84.40
12893;DHT22;6514;48.606;9.222;2023-06-14T09:54:48;29.30;75.60
12893;DHT22;6514;48.606;9.222;2023-06-14T09:57:16;29.60;77.70
12893;DHT22;6514;48.606;9.222;2023-06-14T09:59:44;30.20;79.30
12893;DHT22;6514;48.606;9.222;2023-06-14T10:02:21;30.80;74.10
12893;DHT22;6514;48.606;9.222;2023-06-14T10:04:56;31.10;72.50
12893;DHT22;6514;48.606;9.222;2023-06-14T10:07:26;31.50;76.20
12893;DHT22;6514;48.606;9.222;2023-06-14T10:09:56;31.20;72.40
12893;DHT22;6514;48.606;9.222;2023-06-14T10:12:23;31.20;73.50
12893;DHT22;6514;48.606;9.222;2023-06-14T10:14:51;31.20;73.40
12893;DHT22;6514;48.606;9.222;2023-06-14T10:17:26;31.30;74.70
12893;DHT22;6514;48.606;9.222;2023-06-14T10:19:58;31.40;71.50
12893;DHT22;6514;48.606;9.222;2023-06-14T10:22:33;32.10;72.30
12893;DHT22;6514;48.606;9.222;2023-06-14T10:25:02;31.90;69.80
12893;DHT22;6514;48.606;9.222;2023-06-14T10:27:37;31.20;68.60
12893;DHT22;6514;48.606;9.222;2023-06-14T10:30:07;30.70;73.70
12893;DHT22;6514;48.606;9.222;2023-06-14T10:33:05;31.00;74.60
12893;DHT22;6514;48.606;9.222;2023-06-14T10:35:33;31.60;75.00
12893;DHT22;6514;48.606;9.222;2023-06-14T10:38:07;32.20;74.30
12893;DHT22;6514;48.606;9.222;2023-06-14T10:40:34;32.00;69.60
12893;DHT22;6514;48.606;9.222;2023-06-14T10:43:21;31.10;69.20
12893;DHT22;6514;48.606;9.222;2023-06-14T10:46:14;29.30;72.80
12893;DHT22;6514;48.606;9.222;2023-06-14T10:48:42;28.60;77.90
12893;DHT22;6514;48.606;9.222;2023-06-14T10:51:16;28.30;74.80
12893;DHT22;6514;48.606;9.222;2023-06-14T10:53:46;28.70;78.20
12893;DHT22;6514;48.606;9.222;2023-06-14T10:56:24;29.40;79.00
12893;DHT22;6514;48.606;9.222;2023-06-14T10:58:53;30.50;77.30
12893;DHT22;6514;48.606;9.222;2023-06-14T11:01:38;31.20;69.80
12893;DHT22;6514;48.606;9.222;2023-06-14T11:04:10;31.30;70.30
12893;DHT22;6514;48.606;9.222;2023-06-14T11:06:46;31.50;70.70
12893;DHT22;6514;48.606;9.222;2023-06-14T11:09:47;31.50;74.70
12893;DHT22;6514;48.606;9.222;2023-06-14T11:12:21;31.60;71.40
12893;DHT22;6514;48.606;9.222;2023-06-14T11:14:48;31.70;73.60
12893;DHT22;6514;48.606;9.222;2023-06-14T11:17:16;32.20;72.90
12893;DHT22;6514;48.606;9.222;2023-06-14T11:19:44;32.90;69.00
12893;DHT22;6514;48.606;9.222;2023-06-14T11:22:11;33.40;69.70
12893;DHT22;6514;48.606;9.222;2023-06-14T11:24:40;33.60;73.00
12893;DHT22;6514;48.606;9.222;2023-06-14T11:27:07;33.90;69.40
12893;DHT22;6514;48.606;9.222;2023-06-14T11:29:34;33.90;69.80
12893;DHT22;6514;48.606;9.222;2023-06-14T11:32:01;33.30;69.40
12893;DHT22;6514;48.606;9.222;2023-06-14T11:34:28;32.50;67.10
12893;DHT22;6514;48.606;9.222;2023-06-14T11:36:56;31.90;70.00
12893;DHT22;6514;48.606;9.222;2023-06-14T11:39:27;32.10;74.30
12893;DHT22;6514;48.606;9.222;2023-06-14T11:41:54;32.30;72.60
12893;DHT22;6514;48.606;9.222;2023-06-14T11:44:21;32.90;68.20
12893;DHT22;6514;48.606;9.222;2023-06-14T11:46:48;33.20;72.10
12893;DHT22;6514;48.606;9.222;2023-06-14T11:49:16;33.20;68.60
12893;DHT22;6514;48.606;9.222;2023-06-14T11:51:43;32.40;66.10
12893;DHT22;6514;48.606;9.222;2023-06-14T11:54:12;32.00;75.70
12893;DHT22;6514;48.606;9.222;2023-06-14T11:56:39;32.10;73.10
12893;DHT22;6514;48.606;9.222;2023-06-14T11:59:06;32.40;72.60
12893;DHT22;6514;48.606;9.222;2023-06-14T12:01:36;32.50;69.50
12893;DHT22;6514;48.606;9.222;2023-06-14T12:04:13;32.50;67.20
12893;DHT22;6514;48.606;9.222;2023-06-14T12:06:40;32.50;68.30
12893;DHT22;6514;48.606;9.222;2023-06-14T12:09:22;32.30;67.00
12893;DHT22;6514;48.606;9.222;2023-06-14T12:11:59;31.10;69.00
12893;DHT22;6514;48.606;9.222;2023-06-14T12:14:28;29.90;71.20
12893;DHT22;6514;48.606;9.222;2023-06-14T12:17:04;28.70;69.80
12893;DHT22;6514;48.606;9.222;2023-06-14T12:19:32;28.10;76.70
12893;DHT22;6514;48.606;9.222;2023-06-14T12:22:00;28.60;72.10
12893;DHT22;6514;48.606;9.222;2023-06-14T12:24:32;29.30;73.30
12893;DHT22;6514;48.606;9.222;2023-06-14T12:26:58;30.10;73.60
12893;DHT22;6514;48.606;9.222;2023-06-14T12:29:28;30.90;72.00
12893;DHT22;6514;48.606;9.222;2023-06-14T12:31:55;31.70;69.20
12893;DHT22;6514;48.606;9.222;2023-06-14T12:34:22;32.30;69.00
12893;DHT22;6514;48.606;9.222;2023-06-14T12:36:50;32.70;69.80
12893;DHT22;6514;48.606;9.222;2023-06-14T12:39:17;33.30;70.10
12893;DHT22;6514;48.606;9.222;2023-06-14T12:41:45;33.80;68.60
12893;DHT22;6514;48.606;9.222;2023-06-14T12:44:12;34.20;70.30
12893;DHT22;6514;48.606;9.222;2023-06-14T12:46:40;34.70;67.90
12893;DHT22;6514;48.606;9.222;2023-06-14T12:49:08;35.00;64.30
12893;DHT22;6514;48.606;9.222;2023-06-14T12:51:36;34.50;66.30
12893;DHT22;6514;48.606;9.222;2023-06-14T12:54:03;34.00;65.70
12893;DHT22;6514;48.606;9.222;2023-06-14T12:56:30;33.40;64.30
12893;DHT22;6514;48.606;9.222;2023-06-14T12:58:58;33.00;70.50
12893;DHT22;6514;48.606;9.222;2023-06-14T13:01:26;32.80;65.30
12893;DHT22;6514;48.606;9.222;2023-06-14T13:03:53;32.50;67.20
12893;DHT22;6514;48.606;9.222;2023-06-14T13:06:21;32.30;65.60
12893;DHT22;6514;48.606;9.222;2023-06-14T13:08:48;31.90;69.10
12893;DHT22;6514;48.606;9.222;2023-06-14T13:11:15;31.80;67.90
12893;DHT22;6514;48.606;9.222;2023-06-14T13:13:42;31.70;65.50
12893;DHT22;6514;48.606;9.222;2023-06-14T13:16:11;31.50;70.20
12893;DHT22;6514;48.606;9.222;2023-06-14T13:18:39;31.70;65.50
12893;DHT22;6514;48.606;9.222;2023-06-14T13:21:06;31.80;69.60
12893;DHT22;6514;48.606;9.222;2023-06-14T13:23:33;32.20;69.30
12893;DHT22;6514;48.606;9.222;2023-06-14T13:26:00;32.70;66.60
12893;DHT22;6514;48.606;9.222;2023-06-14T13:28:27;32.90;65.50
12893;DHT22;6514;48.606;9.222;2023-06-14T13:30:54;33.30;70.60
12893;DHT22;6514;48.606;9.222;2023-06-14T13:33:22;33.40;70.30
12893;DHT22;6514;48.606;9.222;2023-06-14T13:35:49;33.60;64.10
12893;DHT22;6514;48.606;9.222;2023-06-14T13:38:18;33.10;66.20
12893;DHT22;6514;48.606;9.222;2023-06-14T13:40:51;32.10;66.30
12893;DHT22;6514;48.606;9.222;2023-06-14T13:43:17;31.80;67.30
12893;DHT22;6514;48.606;9.222;2023-06-14T13:45:44;31.10;68.20
12893;DHT22;6514;48.606;9.222;2023-06-14T13:48:11;30.20;69.60
12893;DHT22;6514;48.606;9.222;2023-06-14T13:50:40;29.60;73.20
12893;DHT22;6514;48.606;9.222;2023-06-14T13:53:07;29.10;73.50
12893;DHT22;6514;48.606;9.222;2023-06-14T13:55:33;28.80;71.50
12893;DHT22;6514;48.606;9.222;2023-06-14T13:58:00;29.00;76.80
12893;DHT22;6514;48.606;9.222;2023-06-14T14:00:27;29.60;71.40
12893;DHT22;6514;48.606;9.222;2023-06-14T14:02:54;30.00;71.10
12893;DHT22;6514;48.606;9.222;2023-06-14T14:05:22;30.40;70.60
12893;DHT22;6514;48.606;9.222;2023-06-14T14:07:55;30.60;74.00
12893;DHT22;6514;48.606;9.222;2023-06-14T14:10:22;30.90;68.60
12893;DHT22;6514;48.606;9.222;2023-06-14T14:12:50;31.10;68.30
12893;DHT22;6514;48.606;9.222;2023-06-14T14:15:18;31.20;74.80
12893;DHT22;6514;48.606;9.222;2023-06-14T14:17:45;31.70;69.50
12893;DHT22;6514;48.606;9.222;2023-06-14T14:20:12;32.00;67.50
12893;DHT22;6514;48.606;9.222;2023-06-14T14:22:41;31.70;67.20
12893;DHT22;6514;48.606;9.222;2023-06-14T14:25:10;31.20;70.30
12893;DHT22;6514;48.606;9.222;2023-06-14T14:27:37;31.10;71.30
12893;DHT22;6514;48.606;9.222;2023-06-14T14:30:05;31.10;69.10
12893;DHT22;6514;48.606;9.222;2023-06-14T14:32:32;31.10;67.20
12893;DHT22;6514;48.606;9.222;2023-06-14T14:34:59;30.80;69.10
12893;DHT22;6514;48.606;9.222;2023-06-14T14:37:26;30.20;71.50
12893;DHT22;6514;48.606;9.222;2023-06-14T14:39:53;29.60;72.40
12893;DHT22;6514;48.606;9.222;2023-06-14T14:42:21;29.30;72.30
12893;DHT22;6514;48.606;9.222;2023-06-14T14:44:48;29.10;74.70
12893;DHT22;6514;48.606;9.222;2023-06-14T14:47:15;29.50;76.10
12893;DHT22;6514;48.606;9.222;2023-06-14T14:49:42;30.10;70.60
12893;DHT22;6514;48.606;9.222;2023-06-14T14:52:09;30.60;71.00
12893;DHT22;6514;48.606;9.222;2023-06-14T14:54:36;30.40;68.50
12893;DHT22;6514;48.606;9.222;2023-06-14T14:57:03;30.30;71.70
12893;DHT22;6514;48.606;9.222;2023-06-14T14:59:32;30.50;70.60
12893;DHT22;6514;48.606;9.222;2023-06-14T15:01:58;30.90;73.50
12893;DHT22;6514;48.606;9.222;2023-06-14T15:04:25;31.50;71.60
12893;DHT22;6514;48.606;9.222;2023-06-14T15:06:52;32.00;72.80
12893;DHT22;6514;48.606;9.222;2023-06-14T15:09:19;32.20;67.30
12893;DHT22;6514;48.606;9.222;2023-06-14T15:11:46;32.30;68.90
12893;DHT22;6514;48.606;9.222;2023-06-14T15:14:13;32.30;70.40
12893;DHT22;6514;48.606;9.222;2023-06-14T15:16:41;32.80;69.30
12893;DHT22;6514;48.606;9.222;2023-06-14T15:19:08;32.70;66.00
12893;DHT22;6514;48.606;9.222;2023-06-14T15:21:35;32.30;71.40
12893;DHT22;6514;48.606;9.222;2023-06-14T15:24:02;32.00;67.70
12893;DHT22;6514;48.606;9.222;2023-06-14T15:26:29;31.60;69.10
12893;DHT22;6514;48.606;9.222;2023-06-14T15:28:56;31.20;69.00
12893;DHT22;6514;48.606;9.222;2023-06-14T15:31:23;30.80;71.90
12893;DHT22;6514;48.606;9.222;2023-06-14T15:33:54;30.30;73.10
12893;DHT22;6514;48.606;9.222;2023-06-14T15:36:21;29.70;72.20
12893;DHT22;6514;48.606;9.222;2023-06-14T15:38:48;29.70;75.30
12893;DHT22;6514;48.606;9.222;2023-06-14T15:41:15;29.70;74.60
12893;DHT22;6514;48.606;9.222;2023-06-14T15:43:42;30.00;70.10
12893;DHT22;6514;48.606;9.222;2023-06-14T15:46:09;30.10;73.20
12893;DHT22;6514;48.606;9.222;2023-06-14T15:48:36;30.40;75.00
12893;DHT22;6514;48.606;9.222;2023-06-14T15:51:04;30.70;72.90